createdAt,value
2019-05-22T00:01:13.279Z,11.55
2019-05-22T00:03:47.193Z,11.58
2019-05-22T00:06:18.491Z,11.56
2019-05-22T00:08:49.945Z,11.49
2019-05-22T00:11:21.706Z,11.51
2019-05-22T00:13:51.513Z,11.54
2019-05-22T00:16:22.115Z,11.55
2019-05-22T00:18:52.478Z,11.54
2019-05-22T00:21:22.595Z,11.53
2019-05-22T00:23:52.473Z,11.55
2019-05-22T00:26:23.390Z,11.53
2019-05-22T00:28:53.988Z,11.49
2019-05-22T00:31:23.329Z,11.48
2019-05-22T00:33:55.439Z,11.44
2019-05-22T00:36:24.852Z,11.45
2019-05-22T00:38:55.827Z,11.44
2019-05-22T00:41:26.884Z,11.44
2019-05-22T00:43:56.296Z,11.42
2019-05-22T00:46:25.911Z,11.44
2019-05-22T00:48:55.313Z,11.42
2019-05-22T00:51:30.943Z,11.32
2019-05-22T00:54:03.492Z,11.31
2019-05-22T00:56:34.483Z,11.29
2019-05-22T00:59:11.081Z,11.30
2019-05-22T01:01:45.434Z,11.33
2019-05-22T01:04:16.418Z,11.30
2019-05-22T01:06:47.667Z,11.23
2019-05-22T01:09:34.319Z,11.28
2019-05-22T01:12:03.998Z,11.29
2019-05-22T01:14:42.985Z,11.28
2019-05-22T01:17:08.111Z,11.24
2019-05-22T01:19:39.096Z,11.27
2019-05-22T01:22:10.259Z,11.26
2019-05-22T01:24:41.566Z,11.20
2019-05-22T01:27:12.676Z,11.26
2019-05-22T01:29:43.981Z,11.21
2019-05-22T01:32:16.125Z,11.15
2019-05-22T01:34:45.741Z,11.18
2019-05-22T01:37:15.951Z,11.14
2019-05-22T01:39:55.836Z,11.14
2019-05-22T01:42:30.342Z,11.16
2019-05-22T01:45:06.209Z,11.18
2019-05-22T01:47:49.049Z,11.20
2019-05-22T01:50:29.020Z,11.15
2019-05-22T01:52:58.444Z,11.13
2019-05-22T01:55:27.782Z,11.10
2019-05-22T01:57:58.165Z,11.07
2019-05-22T02:00:28.121Z,11.03
2019-05-22T02:02:58.085Z,11.07
2019-05-22T02:05:28.487Z,11.07
2019-05-22T02:07:59.223Z,11.03
2019-05-22T02:10:38.338Z,11.02
2019-05-22T02:13:11.202Z,11.01
2019-05-22T02:15:41.521Z,11.05
2019-05-22T02:18:17.913Z,11.02
2019-05-22T02:20:48.138Z,11.04
2019-05-22T02:23:17.952Z,10.99
2019-05-22T02:25:47.666Z,11.01
2019-05-22T02:28:18.506Z,10.98
2019-05-22T02:30:48.496Z,10.93
2019-05-22T02:33:22.146Z,10.94
2019-05-22T02:35:51.510Z,10.94
2019-05-22T02:38:21.169Z,10.94
2019-05-22T02:40:53.185Z,10.94
2019-05-22T02:43:24.550Z,10.89
2019-05-22T02:45:53.891Z,10.91
2019-05-22T02:48:25.671Z,10.93
2019-05-22T02:50:57.015Z,10.90
2019-05-22T02:53:27.624Z,10.89
2019-05-22T02:55:57.430Z,10.89
2019-05-22T02:58:28.795Z,10.91
2019-05-22T03:01:02.544Z,10.97
2019-05-22T03:03:33.578Z,10.95
2019-05-22T03:06:05.642Z,10.91
2019-05-22T03:08:58.197Z,10.89
2019-05-22T03:11:37.380Z,10.91
2019-05-22T03:14:09.193Z,10.90
2019-05-22T03:16:57.926Z,10.92
2019-05-22T03:19:43.779Z,10.87
2019-05-22T03:22:34.592Z,10.82
2019-05-22T03:25:08.090Z,10.89
2019-05-22T03:27:39.953Z,10.90
2019-05-22T03:30:21.296Z,10.88
2019-05-22T03:32:52.102Z,10.88
2019-05-22T03:35:24.628Z,10.88
2019-05-22T03:37:56.476Z,10.91
2019-05-22T03:40:28.751Z,10.90
2019-05-22T03:42:59.765Z,10.91
2019-05-22T03:45:31.048Z,10.90
2019-05-22T03:48:03.767Z,10.90
2019-05-22T03:50:33.484Z,10.89
2019-05-22T03:53:08.499Z,10.90
2019-05-22T03:55:38.119Z,10.90
2019-05-22T03:58:07.458Z,10.92
2019-05-22T04:00:42.926Z,10.92
2019-05-22T04:03:09.811Z,10.94
2019-05-22T04:05:39.240Z,10.89
2019-05-22T04:08:10.883Z,10.84
2019-05-22T04:11:02.615Z,10.79
2019-05-22T04:13:33.177Z,10.86
2019-05-22T04:16:05.603Z,10.87
2019-05-22T04:18:35.833Z,10.86
2019-05-22T04:21:05.815Z,10.89
2019-05-22T04:23:35.939Z,10.90
2019-05-22T04:26:08.960Z,10.94
2019-05-22T04:28:41.339Z,10.91
2019-05-22T04:31:10.750Z,10.91
2019-05-22T04:33:40.082Z,10.88
2019-05-22T04:36:10.497Z,10.87
2019-05-22T04:38:40.950Z,10.88
2019-05-22T04:41:10.378Z,10.91
2019-05-22T04:43:40.085Z,10.94
2019-05-22T04:46:11.512Z,10.97
2019-05-22T04:48:45.809Z,10.89
2019-05-22T04:51:26.313Z,10.93
2019-05-22T04:53:57.551Z,10.97
2019-05-22T04:56:28.201Z,10.97
2019-05-22T04:58:58.580Z,10.98
2019-05-22T05:01:28.393Z,10.97
2019-05-22T05:03:58.837Z,10.96
2019-05-22T05:06:29.807Z,10.96
2019-05-22T05:08:59.486Z,10.99
2019-05-22T05:11:28.961Z,11.01
2019-05-22T05:13:58.367Z,10.95
2019-05-22T05:16:27.761Z,10.96
2019-05-22T05:18:57.163Z,10.96
2019-05-22T05:21:26.903Z,10.95
2019-05-22T05:23:56.595Z,10.95
2019-05-22T05:26:26.748Z,10.95
2019-05-22T05:28:56.222Z,10.99
2019-05-22T05:31:25.643Z,10.94
2019-05-22T05:34:13.060Z,10.98
2019-05-22T05:36:42.797Z,11.00
2019-05-22T05:39:37.702Z,10.99
2019-05-22T05:42:07.107Z,10.99
2019-05-22T05:44:36.526Z,11.05
2019-05-22T05:47:07.381Z,11.07
2019-05-22T05:49:36.714Z,11.07
2019-05-22T05:52:09.120Z,11.01
2019-05-22T05:54:39.474Z,10.99
2019-05-22T05:57:35.502Z,11.03
2019-05-22T06:00:09.191Z,11.06
2019-05-22T06:02:37.955Z,11.03
2019-05-22T06:05:09.576Z,11.04
2019-05-22T06:07:39.394Z,11.06
2019-05-22T06:10:20.499Z,11.07
2019-05-22T06:12:50.494Z,11.12
2019-05-22T06:15:20.559Z,11.17
2019-05-22T06:18:27.741Z,11.12
2019-05-22T06:21:03.747Z,11.17
2019-05-22T06:23:32.616Z,11.12
2019-05-22T06:26:04.779Z,11.17
2019-05-22T06:28:38.345Z,11.18
2019-05-22T06:31:11.193Z,11.15
2019-05-22T06:33:40.536Z,11.21
2019-05-22T06:36:12.876Z,11.19
2019-05-22T06:38:59.682Z,11.22
2019-05-22T06:41:32.861Z,11.22
2019-05-22T06:44:30.243Z,11.24
2019-05-22T06:47:00.647Z,11.31
2019-05-22T06:49:36.268Z,11.32
2019-05-22T06:52:09.476Z,11.35
2019-05-22T06:54:39.320Z,11.35
2019-05-22T06:57:12.263Z,11.38
2019-05-22T06:59:43.436Z,11.42
2019-05-22T07:02:14.812Z,11.49
2019-05-22T07:04:44.859Z,11.50
2019-05-22T07:07:15.897Z,11.53
2019-05-22T07:09:46.345Z,11.52
2019-05-22T07:12:19.988Z,11.55
2019-05-22T07:14:50.539Z,11.55
2019-05-22T07:17:22.150Z,11.59
2019-05-22T07:19:52.045Z,11.60
2019-05-22T07:22:22.021Z,11.65
2019-05-22T07:24:51.620Z,11.73
2019-05-22T07:27:26.849Z,11.74
2019-05-22T07:29:57.056Z,11.75
2019-05-22T07:32:30.532Z,11.70
2019-05-22T07:34:57.654Z,11.71
2019-05-22T07:37:26.991Z,11.77
2019-05-22T07:39:56.457Z,11.81
2019-05-22T07:42:26.117Z,11.89
2019-05-22T07:44:55.454Z,11.92
2019-05-22T07:47:26.127Z,11.98
2019-05-22T07:49:55.691Z,12.03
2019-05-22T07:52:25.551Z,12.07
2019-05-22T07:54:55.592Z,12.16
2019-05-22T07:57:27.106Z,12.21
2019-05-22T07:59:56.714Z,12.26
2019-05-22T08:02:29.778Z,12.29
2019-05-22T08:05:01.231Z,12.36
2019-05-22T08:07:35.002Z,12.38
2019-05-22T08:10:07.809Z,12.47
2019-05-22T08:12:38.163Z,12.57
2019-05-22T08:15:08.841Z,12.59
2019-05-22T08:17:38.356Z,12.60
2019-05-22T08:20:07.765Z,12.65
2019-05-22T08:22:38.940Z,12.72
2019-05-22T08:25:09.250Z,12.82
2019-05-22T08:27:39.328Z,12.92
2019-05-22T08:30:10.014Z,12.96
2019-05-22T08:32:40.387Z,13.01
2019-05-22T08:35:11.751Z,13.07
2019-05-22T08:37:42.935Z,13.14
2019-05-22T08:40:16.303Z,13.25
2019-05-22T08:42:46.397Z,13.34
2019-05-22T08:45:18.673Z,13.41
2019-05-22T08:47:48.195Z,13.49
2019-05-22T08:50:20.010Z,13.50
2019-05-22T08:52:49.513Z,13.51
2019-05-22T08:55:18.925Z,13.66
2019-05-22T08:57:48.361Z,13.75
2019-05-22T09:00:19.865Z,13.81
2019-05-22T09:02:50.922Z,13.86
2019-05-22T09:05:21.794Z,13.90
2019-05-22T09:07:51.916Z,13.91
2019-05-22T09:10:25.793Z,13.97
2019-05-22T09:12:53.305Z,13.89
2019-05-22T09:15:23.602Z,13.91
2019-05-22T09:17:53.477Z,13.83
2019-05-22T09:20:23.083Z,13.88
2019-05-22T09:22:52.859Z,13.98
2019-05-22T09:25:22.194Z,14.07
2019-05-22T09:27:51.872Z,14.17
2019-05-22T09:30:21.709Z,14.25
2019-05-22T09:32:51.364Z,14.35
2019-05-22T09:35:21.279Z,14.40
2019-05-22T09:37:50.994Z,14.29
2019-05-22T09:40:20.851Z,14.36
2019-05-22T09:42:50.263Z,14.43
2019-05-22T09:45:20.209Z,14.50
2019-05-22T09:47:49.685Z,14.60
2019-05-22T09:50:19.582Z,14.71
2019-05-22T09:52:57.589Z,14.67
2019-05-22T09:55:20.808Z,14.72
2019-05-22T09:57:50.213Z,14.74
2019-05-22T10:00:20.560Z,14.78
2019-05-22T10:02:50.022Z,14.85
2019-05-22T10:05:19.895Z,14.90
2019-05-22T10:08:00.411Z,14.94
2019-05-22T10:10:21.112Z,15.00
2019-05-22T10:12:50.799Z,15.06
2019-05-22T10:15:21.268Z,15.12
2019-05-22T10:17:50.842Z,15.22
2019-05-22T10:20:20.914Z,15.31
2019-05-22T10:22:50.313Z,15.38
2019-05-22T10:25:20.082Z,15.42
2019-05-22T10:27:49.957Z,15.46
2019-05-22T10:30:22.644Z,15.59
2019-05-22T10:32:51.990Z,15.64
2019-05-22T10:35:27.015Z,15.61
2019-05-22T10:37:57.167Z,15.71
2019-05-22T10:40:27.022Z,15.83
2019-05-22T10:42:57.395Z,15.89
2019-05-22T10:45:27.530Z,16.00
2019-05-22T10:47:57.442Z,16.12
2019-05-22T10:50:27.623Z,16.23
2019-05-22T10:52:57.422Z,16.39
2019-05-22T10:55:28.278Z,16.51
2019-05-22T10:57:58.215Z,16.61
2019-05-22T11:00:27.626Z,16.81
2019-05-22T11:02:57.877Z,16.95
2019-05-22T11:05:27.448Z,17.09
2019-05-22T11:07:59.138Z,17.29
2019-05-22T11:10:29.108Z,17.46
2019-05-22T11:12:59.201Z,17.61
2019-05-22T11:15:28.944Z,17.78
2019-05-22T11:17:58.594Z,17.79
2019-05-22T11:20:28.699Z,18.06
2019-05-22T11:22:58.046Z,18.48
2019-05-22T11:25:27.644Z,18.79
2019-05-22T11:27:56.984Z,19.11
2019-05-22T11:30:27.051Z,19.41
2019-05-22T11:32:56.850Z,19.60
2019-05-22T11:35:27.429Z,19.87
2019-05-22T11:37:56.939Z,20.15
2019-05-22T11:40:26.876Z,20.37
2019-05-22T11:42:57.629Z,20.59
2019-05-22T11:45:28.174Z,20.89
2019-05-22T11:47:57.509Z,21.20
2019-05-22T11:50:27.692Z,21.36
2019-05-22T11:52:57.111Z,21.66
2019-05-22T11:55:42.618Z,21.98
2019-05-22T11:57:57.657Z,22.44
2019-05-22T12:00:27.690Z,22.86
2019-05-22T12:02:57.583Z,23.43
2019-05-22T12:05:26.906Z,23.80
2019-05-22T12:07:56.799Z,24.24
2019-05-22T12:10:26.586Z,24.74
2019-05-22T12:12:55.988Z,25.04
2019-05-22T12:15:28.132Z,25.29
2019-05-22T12:17:57.860Z,25.62
2019-05-22T12:20:29.240Z,25.88
2019-05-22T12:22:58.778Z,26.05
2019-05-22T12:25:29.125Z,26.17
2019-05-22T12:27:58.467Z,26.27
2019-05-22T12:30:28.429Z,26.06
2019-05-22T12:32:59.202Z,25.97
2019-05-22T12:35:29.104Z,25.75
2019-05-22T12:38:00.196Z,25.68
2019-05-22T12:40:33.750Z,25.63
2019-05-22T12:43:03.381Z,25.62
2019-05-22T12:45:33.409Z,25.62
2019-05-22T12:48:04.078Z,25.63
2019-05-22T12:50:34.554Z,25.96
2019-05-22T12:53:06.767Z,26.25
2019-05-22T12:55:36.668Z,26.36
2019-05-22T12:58:06.725Z,26.43
2019-05-22T13:00:36.390Z,26.97
2019-05-22T13:03:07.433Z,27.49
2019-05-22T13:05:39.425Z,27.62
2019-05-22T13:08:09.359Z,27.55
2019-05-22T13:10:39.398Z,27.49
2019-05-22T13:13:08.897Z,27.86
2019-05-22T13:15:39.381Z,28.08
2019-05-22T13:18:10.631Z,28.32
2019-05-22T13:20:44.977Z,28.54
2019-05-22T13:23:17.567Z,28.60
2019-05-22T13:25:47.263Z,28.73
2019-05-22T13:28:18.942Z,28.54
2019-05-22T13:30:52.691Z,28.33
2019-05-22T13:33:26.576Z,27.87
2019-05-22T13:35:57.735Z,27.72
2019-05-22T13:38:28.734Z,27.53
2019-05-22T13:40:58.573Z,27.55
2019-05-22T13:43:28.830Z,27.15
2019-05-22T13:45:59.276Z,27.21
2019-05-22T13:48:30.215Z,27.09
2019-05-22T13:51:00.397Z,27.16
2019-05-22T13:53:31.929Z,27.20
2019-05-22T13:56:01.410Z,27.33
2019-05-22T13:58:30.857Z,27.35
2019-05-22T14:01:00.659Z,27.54
2019-05-22T14:03:30.591Z,27.27
2019-05-22T14:06:00.354Z,27.64
2019-05-22T14:08:29.919Z,28.02
2019-05-22T14:11:00.374Z,27.98
2019-05-22T14:13:30.853Z,28.36
2019-05-22T14:16:00.263Z,28.72
2019-05-22T14:18:29.885Z,29.07
2019-05-22T14:20:59.496Z,29.36
2019-05-22T14:23:29.963Z,29.56
2019-05-22T14:25:59.500Z,29.66
2019-05-22T14:28:30.850Z,29.29
2019-05-22T14:31:00.549Z,29.78
2019-05-22T14:33:30.282Z,29.76
2019-05-22T14:36:00.967Z,29.76
2019-05-22T14:38:30.292Z,29.76
2019-05-22T14:41:00.578Z,29.62
2019-05-22T14:43:30.097Z,29.29
2019-05-22T14:45:59.449Z,28.68
2019-05-22T14:48:29.148Z,28.68
2019-05-22T14:50:59.477Z,28.65
2019-05-22T14:53:29.723Z,28.29
2019-05-22T14:56:01.439Z,28.27
2019-05-22T14:58:31.622Z,28.27
2019-05-22T15:01:01.019Z,28.15
2019-05-22T15:03:30.892Z,28.14
2019-05-22T15:06:00.489Z,28.11
2019-05-22T15:08:29.964Z,28.06
2019-05-22T15:10:59.775Z,27.98
2019-05-22T15:13:29.530Z,27.83
2019-05-22T15:15:58.880Z,27.73
2019-05-22T15:18:28.943Z,27.55
2019-05-22T15:21:09.448Z,27.52
2019-05-22T15:23:39.542Z,27.39
2019-05-22T15:26:09.672Z,27.22
2019-05-22T15:28:40.209Z,27.08
2019-05-22T15:31:09.703Z,26.91
2019-05-22T15:33:40.668Z,26.73
2019-05-22T15:36:13.644Z,26.37
2019-05-22T15:38:44.884Z,26.13
2019-05-22T15:41:14.482Z,25.99
2019-05-22T15:43:50.391Z,25.64
2019-05-22T15:46:18.577Z,25.48
2019-05-22T15:48:48.832Z,25.29
2019-05-22T15:51:21.240Z,25.14
2019-05-22T15:53:52.078Z,24.94
2019-05-22T15:56:21.876Z,24.81
2019-05-22T15:58:54.661Z,24.69
2019-05-22T16:01:25.603Z,24.52
2019-05-22T16:03:56.767Z,24.41
2019-05-22T16:06:29.515Z,24.29
2019-05-22T16:08:59.682Z,24.18
2019-05-22T16:11:31.627Z,24.00
2019-05-22T16:14:03.306Z,23.87
2019-05-22T16:16:34.620Z,23.77
2019-05-22T16:19:07.555Z,23.70
2019-05-22T16:21:40.208Z,23.56
2019-05-22T16:24:10.574Z,23.45
2019-05-22T16:26:41.106Z,23.26
2019-05-22T16:29:10.882Z,23.21
2019-05-22T16:31:42.731Z,22.93
2019-05-22T16:34:12.492Z,22.91
2019-05-22T16:36:44.894Z,22.86
2019-05-22T16:39:15.535Z,22.82
2019-05-22T16:41:46.182Z,22.82
2019-05-22T16:44:16.450Z,22.72
2019-05-22T16:46:48.564Z,22.71
2019-05-22T16:49:17.962Z,22.66
2019-05-22T16:51:48.540Z,22.57
2019-05-22T16:54:20.887Z,22.53
2019-05-22T16:56:50.326Z,22.49
2019-05-22T16:59:20.170Z,22.43
2019-05-22T17:01:59.859Z,22.39
2019-05-22T17:04:21.179Z,22.34
2019-05-22T17:06:51.554Z,22.28
2019-05-22T17:09:21.757Z,22.21
2019-05-22T17:11:52.513Z,22.13
2019-05-22T17:14:23.891Z,22.07
2019-05-22T17:16:53.572Z,21.99
2019-05-22T17:19:27.516Z,21.91
2019-05-22T17:21:55.140Z,21.84
2019-05-22T17:24:24.941Z,21.79
2019-05-22T17:26:56.018Z,21.74
2019-05-22T17:29:26.379Z,21.68
2019-05-22T17:31:56.265Z,21.63
2019-05-22T17:34:31.832Z,21.47
2019-05-22T17:37:06.233Z,21.47
2019-05-22T17:39:38.171Z,21.42
2019-05-22T17:42:10.518Z,21.42
2019-05-22T17:44:43.192Z,21.35
2019-05-22T17:47:13.525Z,21.30
2019-05-22T17:49:43.321Z,21.23
2019-05-22T17:52:14.572Z,21.22
2019-05-22T17:54:45.146Z,21.17
2019-05-22T17:57:15.313Z,21.12
2019-05-22T17:59:44.656Z,21.09
2019-05-22T18:02:16.138Z,20.99
2019-05-22T18:04:45.801Z,20.94
2019-05-22T18:07:15.498Z,20.84
2019-05-22T18:09:45.078Z,20.79
2019-05-22T18:12:15.007Z,20.72
2019-05-22T18:14:45.317Z,20.65
2019-05-22T18:17:15.385Z,20.54
2019-05-22T18:19:44.981Z,20.44
2019-05-22T18:22:16.317Z,20.39
2019-05-22T18:24:46.426Z,20.33
2019-05-22T18:27:15.763Z,20.29
2019-05-22T18:29:45.093Z,20.22
2019-05-22T18:32:14.424Z,20.14
2019-05-22T18:34:43.783Z,20.10
2019-05-22T18:37:13.184Z,20.01
2019-05-22T18:39:42.512Z,19.94
2019-05-22T18:42:12.588Z,19.87
2019-05-22T18:44:41.919Z,19.81
2019-05-22T18:47:11.824Z,19.72
2019-05-22T18:49:41.223Z,19.63
2019-05-22T18:52:11.324Z,19.56
2019-05-22T18:54:40.719Z,19.46
2019-05-22T18:57:10.735Z,19.33
2019-05-22T18:59:40.341Z,19.21
2019-05-22T19:02:09.672Z,19.02
2019-05-22T19:04:40.278Z,18.91
2019-05-22T19:07:10.063Z,18.82
2019-05-22T19:09:39.572Z,18.68
2019-05-22T19:12:09.048Z,18.58
2019-05-22T19:14:38.368Z,18.49
2019-05-22T19:17:08.122Z,18.42
2019-05-22T19:19:38.391Z,18.33
2019-05-22T19:22:07.966Z,18.23
2019-05-22T19:24:37.434Z,18.12
2019-05-22T19:27:06.850Z,18.02
2019-05-22T19:29:36.285Z,17.90
2019-05-22T19:32:06.047Z,17.83
2019-05-22T19:34:35.379Z,17.76
2019-05-22T19:37:04.779Z,17.65
2019-05-22T19:39:34.883Z,17.57
2019-05-22T19:42:05.754Z,17.48
2019-05-22T19:44:35.513Z,17.39
2019-05-22T19:47:06.791Z,17.30
2019-05-22T19:49:36.117Z,17.23
2019-05-22T19:52:07.665Z,17.18
2019-05-22T19:54:38.340Z,17.14
2019-05-22T19:57:09.014Z,17.11
2019-05-22T19:59:38.357Z,17.07
2019-05-22T20:02:09.714Z,17.04
2019-05-22T20:04:39.115Z,16.98
2019-05-22T20:07:09.404Z,16.93
2019-05-22T20:09:39.383Z,16.89
2019-05-22T20:12:11.770Z,16.84
2019-05-22T20:14:41.111Z,16.80
2019-05-22T20:17:10.715Z,16.77
2019-05-22T20:19:40.564Z,16.74
2019-05-22T20:22:10.237Z,16.68
2019-05-22T20:24:39.638Z,16.61
2019-05-22T20:27:10.230Z,16.58
2019-05-22T20:29:41.187Z,16.57
2019-05-22T20:32:13.926Z,16.56
2019-05-22T20:34:43.711Z,16.55
2019-05-22T20:37:13.216Z,16.54
2019-05-22T20:39:42.563Z,16.49
2019-05-22T20:42:12.084Z,16.46
2019-05-22T20:44:42.330Z,16.41
2019-05-22T20:47:11.740Z,16.35
2019-05-22T20:49:43.360Z,16.31
2019-05-22T20:52:14.315Z,16.27
2019-05-22T20:54:44.997Z,16.19
2019-05-22T20:57:19.575Z,16.10
2019-05-22T20:59:47.685Z,16.02
2019-05-22T21:02:19.736Z,15.95
2019-05-22T21:04:51.413Z,15.90
2019-05-22T21:07:26.527Z,15.86
2019-05-22T21:09:57.372Z,15.80
2019-05-22T21:12:27.345Z,15.72
2019-05-22T21:14:57.342Z,15.65
2019-05-22T21:17:28.488Z,15.61
2019-05-22T21:19:59.589Z,15.54
2019-05-22T21:22:29.410Z,15.46
2019-05-22T21:24:59.774Z,15.37
2019-05-22T21:27:30.414Z,15.31
2019-05-22T21:29:59.828Z,15.25
2019-05-22T21:32:29.869Z,15.20
2019-05-22T21:34:59.591Z,15.13
2019-05-22T21:37:29.314Z,15.01
2019-05-22T21:39:59.206Z,14.90
2019-05-22T21:42:30.267Z,14.81
2019-05-22T21:44:59.974Z,14.73
2019-05-22T21:47:29.586Z,14.63
2019-05-22T21:49:59.007Z,14.56
2019-05-22T21:52:28.495Z,14.46
2019-05-22T21:54:58.875Z,14.39
2019-05-22T21:57:28.559Z,14.30
2019-05-22T21:59:57.899Z,14.23
2019-05-22T22:02:31.929Z,14.16
2019-05-22T22:05:01.333Z,14.09
2019-05-22T22:07:30.741Z,14.03
2019-05-22T22:10:00.416Z,13.96
2019-05-22T22:12:30.020Z,13.87
2019-05-22T22:14:59.929Z,13.80
2019-05-22T22:17:30.619Z,13.74
2019-05-22T22:20:01.289Z,13.69
2019-05-22T22:22:31.355Z,13.63
2019-05-22T22:25:01.624Z,13.58
2019-05-22T22:27:31.388Z,13.55
2019-05-22T22:30:02.623Z,13.55
2019-05-22T22:32:33.312Z,13.53
2019-05-22T22:35:02.921Z,13.54
2019-05-22T22:37:32.637Z,13.51
2019-05-22T22:40:02.520Z,13.47
2019-05-22T22:42:36.834Z,13.43
2019-05-22T22:45:08.849Z,13.38
2019-05-22T22:47:39.452Z,13.32
2019-05-22T22:50:09.947Z,13.26
2019-05-22T22:52:40.635Z,13.19
2019-05-22T22:55:13.052Z,13.14
2019-05-22T22:57:42.652Z,13.06
2019-05-22T23:00:15.599Z,13.02
2019-05-22T23:02:46.361Z,12.97
2019-05-22T23:05:16.839Z,12.90
2019-05-22T23:07:48.593Z,12.85
2019-05-22T23:10:20.182Z,12.77
2019-05-22T23:12:51.044Z,12.70
2019-05-22T23:15:21.710Z,12.63
2019-05-22T23:17:53.041Z,12.56
2019-05-22T23:20:21.459Z,12.51
2019-05-22T23:22:49.680Z,12.46
2019-05-22T23:25:19.933Z,12.40
2019-05-22T23:27:50.849Z,12.34
2019-05-22T23:30:21.021Z,12.27
2019-05-22T23:32:52.539Z,12.22
2019-05-22T23:35:22.788Z,12.16
2019-05-22T23:37:52.393Z,12.10
2019-05-22T23:40:31.016Z,12.05
2019-05-22T23:43:01.881Z,12.01
2019-05-22T23:45:31.284Z,11.95
2019-05-22T23:48:05.308Z,11.91
2019-05-22T23:50:38.009Z,11.85
2019-05-22T23:53:08.738Z,11.80
2019-05-22T23:55:40.763Z,11.74
2019-05-22T23:58:12.223Z,11.69
